Terminal Aerodrome Forecast
Issued by NWS

Home | Current Version | Previous Version | Text Only | Print | Product List | Glossary On
Versions: 1 2 3 4 5 6 7 8 9 10 11 12 13 14 15 16 17
000
FTUS41 KCLE 272300
TAFFDY
TAF
KFDY 272326Z 2800/2824 30012G16KT 6SM -SHSN SCT015 OVC035
      TEMPO 2800/2804 3SM -SHSN OVC015
     FM280400 28006KT P6SM VCSH SCT025 OVC035
      TEMPO 2804/2808 5SM -SHSN OVC025
     FM281400 21007KT P6SM BKN045 OVC120
     FM282200 20008KT P6SM OVC045=

USA.gov is the U.S. government's official web portal to all federal, state and local government web resources and services.